Time;durP1;ratioP1;P1;durP2;ratioP2;P2;SDS_P1;SDS_P2;PMS_P1;PMS_P2;Temp;Humidity;BMP_temperature;BMP_pressure;BME280_temperature;BME280_humidity;BME280_pressure;Samples;Min_cycle;Max_cycle;Signal;HPM_P1;HPM_P2
2024/04/10 00:00:57;;;;;;;20.40;8.10;;;;;;;-147.86;100.00;7037.92;105882;1254;61260;-49
2024/04/10 00:03:28;;;;;;;27.30;7.10;;;;;;;-147.86;100.00;8191.13;105798;1256;74644;-50
2024/04/10 00:06:00;;;;;;;19.60;6.90;;;;;;;-147.86;100.00;9368.37;105606;1253;65344;-48
2024/04/10 00:08:27;;;;;;;14.50;6.90;;;;;;;-147.86;100.00;10581.69;105680;1257;73106;-47
2024/04/10 00:10:54;;;;;;;18.40;7.20;;;;;;;-147.86;100.00;11779.41;105899;1254;61893;-52
2024/04/10 00:13:21;;;;;;;22.00;6.90;;;;;;;-147.86;100.00;12680.30;105862;1253;61319;-51
2024/04/10 00:16:01;;;;;;;11.80;6.20;;;;;;;-147.86;100.00;13464.04;105898;1254;74550;-46
2024/04/10 00:18:28;;;;;;;14.70;7.30;;;;;;;-147.86;100.00;13835.64;105869;1254;65350;-47
2024/04/10 00:20:56;;;;;;;10.10;6.40;;;;;;;-147.86;100.00;14696.90;105856;1254;72764;-49
2024/04/10 00:23:23;;;;;;;16.50;6.90;;;;;;;-147.86;100.00;15161.46;105713;1253;61932;-45
2024/04/10 00:26:00;;;;;;;17.60;6.90;;;;;;;-147.86;100.00;15514.87;105915;1253;61229;-48
2024/04/10 00:28:28;;;;;;;16.80;6.10;;;;;;;-147.86;100.00;15488.47;105866;1256;73708;-46
2024/04/10 00:30:56;;;;;;;16.80;6.90;;;;;;;-147.86;100.00;15924.31;105887;1254;65339;-52
2024/04/10 00:33:23;;;;;;;22.90;6.50;;;;;;;-147.86;100.00;16101.63;105870;1257;72621;-52
2024/04/10 00:35:57;;;;;;;17.00;6.80;;;;;;;-147.86;100.00;16317.85;105835;1254;62188;-48
2024/04/10 00:38:26;;;;;;;20.90;6.40;;;;;;;-147.86;100.00;16355.99;105854;1257;61245;-45
2024/04/10 00:41:04;;;;;;;15.70;6.30;;;;;;;-147.86;100.00;16676.82;105939;1253;73231;-49
2024/04/10 00:43:31;;;;;;;17.20;6.90;;;;;;;-147.86;100.00;16570.68;105912;1257;65434;-46
2024/04/10 00:46:30;;;;;;;23.00;7.40;;;;;;;-147.86;100.00;16949.46;105888;1254;71525;-47
2024/04/10 00:48:57;;;;;;;17.70;7.60;;;;;;;-147.86;100.00;16388.78;105391;1253;62107;-49
2024/04/10 00:51:25;;;;;;;19.50;7.00;;;;;;;-147.86;100.00;17261.04;105846;1253;61430;-46
2024/04/10 00:53:52;;;;;;;15.30;6.70;;;;;;;-147.86;100.00;17515.43;105903;1257;73699;-47
2024/04/10 00:56:19;;;;;;;16.20;6.60;;;;;;;-147.86;100.00;17702.55;105724;1253;64572;-52
2024/04/10 00:58:50;;;;;;;19.50;6.90;;;;;;;-147.86;100.00;17709.57;105913;1253;72667;-49
2024/04/10 01:01:18;;;;;;;14.80;6.50;;;;;;;-147.86;100.00;17845.72;105896;1256;61187;-48
2024/04/10 01:03:45;;;;;;;12.10;6.70;;;;;;;-147.86;100.00;17999.40;105701;1253;61298;-49
2024/04/10 01:06:12;;;;;;;14.50;6.80;;;;;;;-147.86;100.00;18259.30;105889;1256;74661;-52
2024/04/10 01:08:39;;;;;;;18.40;7.30;;;;;;;-147.86;100.00;18428.94;105844;1253;65441;-50
2024/04/10 01:11:07;;;;;;;22.90;6.70;;;;;;;-147.86;100.00;18502.87;105837;1257;73034;-46
2024/04/10 01:13:34;;;;;;;24.10;8.50;;;;;;;-147.86;100.00;18606.38;105905;1253;61245;-49
2024/04/10 01:16:02;;;;;;;22.80;9.50;;;;;;;-147.86;100.00;18832.86;105886;1257;61228;-51
2024/04/10 01:18:29;;;;;;;20.30;7.10;;;;;;;-147.86;100.00;19016.54;105836;1257;74586;-45
2024/04/10 01:20:56;;;;;;;19.00;7.50;;;;;;;-147.86;100.00;19204.12;105935;1253;64691;-51
2024/04/10 01:23:23;;;;;;;14.30;6.40;;;;;;;-147.86;100.00;19220.07;105863;1256;72642;-45
2024/04/10 01:25:50;;;;;;;23.50;7.90;;;;;;;-147.86;100.00;19205.67;105907;1253;61932;-49
2024/04/10 01:28:17;;;;;;;26.40;8.50;;;;;;;-147.86;100.00;19183.10;105886;1253;61241;-48
2024/04/10 01:30:44;;;;;;;27.60;9.40;;;;;;;-147.86;100.00;19258.60;105860;1256;74558;-47
2024/04/10 01:33:11;;;;;;;18.10;8.70;;;;;;;-147.86;100.00;19410.00;105842;1254;65285;-49
2024/04/10 01:35:38;;;;;;;29.40;9.10;;;;;;;-147.86;100.00;19686.35;105862;1254;72537;-51
2024/04/10 01:38:05;;;;;;;23.70;9.00;;;;;;;-147.86;100.00;19994.63;105886;1253;62836;-47
2024/04/10 01:40:32;;;;;;;18.80;8.70;;;;;;;-147.86;100.00;20305.28;105850;1257;62022;-48
2024/04/10 01:42:59;;;;;;;22.30;10.10;;;;;;;-147.86;100.00;20585.18;105890;1253;74487;-48
2024/04/10 01:45:26;;;;;;;30.10;9.50;;;;;;;-147.86;100.00;20919.24;105870;1253;65559;-49
2024/04/10 01:47:52;;;;;;;31.60;12.90;;;;;;;-147.86;100.00;21249.82;105875;1257;72541;-50
2024/04/10 01:50:20;;;;;;;23.20;9.80;;;;;;;-147.86;100.00;21472.16;105884;1253;61930;-46
2024/04/10 01:52:47;;;;;;;29.60;9.90;;;;;;;-147.86;100.00;21536.80;105871;1253;61276;-45
2024/04/10 01:55:14;;;;;;;23.70;9.00;;;;;;;-147.86;100.00;21474.88;105856;1256;74631;-48
2024/04/10 01:57:44;;;;;;;20.70;9.10;;;;;;;-147.86;100.00;21370.14;105890;1257;64357;-50
2024/04/10 02:00:11;;;;;;;23.10;9.20;;;;;;;-147.86;100.00;21479.55;105860;1253;73030;-47
2024/04/10 02:02:39;;;;;;;28.20;10.00;;;;;;;-147.86;100.00;21443.73;105850;1253;61925;-47
2024/04/10 02:05:06;;;;;;;38.40;10.40;;;;;;;-147.86;100.00;21331.19;105910;1253;61256;-52
2024/04/10 02:07:33;;;;;;;28.30;10.10;;;;;;;-147.86;100.00;21118.97;105908;1253;74834;-48
2024/04/10 02:10:00;;;;;;;30.80;9.80;;;;;;;-147.86;100.00;20912.22;105880;1253;64602;-50
2024/04/10 02:12:27;;;;;;;26.60;9.70;;;;;;;-147.86;100.00;20886.14;105879;1254;72588;-49
2024/04/10 02:14:53;;;;;;;30.50;10.60;;;;;;;-147.86;100.00;21060.57;105898;1257;61147;-49
2024/04/10 02:17:20;;;;;;;23.30;8.80;;;;;;;-147.86;100.00;21253.32;105876;1253;61215;-45
2024/04/10 02:19:50;;;;;;;27.50;9.10;;;;;;;-147.86;100.00;21543.42;105838;1257;74352;-49
2024/04/10 02:22:17;;;;;;;23.20;9.40;;;;;;;-147.86;100.00;21663.37;105851;1253;64667;-52
2024/04/10 02:24:44;;;;;;;28.70;9.60;;;;;;;-147.86;100.00;21763.05;105853;1257;72662;-49
2024/04/10 02:27:11;;;;;;;27.60;10.60;;;;;;;-147.86;100.00;21813.68;105844;1257;61130;-48
2024/04/10 02:29:37;;;;;;;21.80;9.90;;;;;;;-147.86;100.00;21783.30;106000;1253;61264;-50
2024/04/10 02:32:04;;;;;;;33.50;12.10;;;;;;;-147.86;100.00;21790.70;105894;1257;74636;-51
2024/04/10 02:34:32;;;;;;;36.30;12.90;;;;;;;-147.86;100.00;21804.33;105865;1256;65561;-52
2024/04/10 02:36:59;;;;;;;42.40;13.70;;;;;;;-147.86;100.00;21746.70;105899;1254;72665;-46
2024/04/10 02:39:27;;;;;;;36.30;14.30;;;;;;;-147.86;100.00;21627.92;105874;1253;61825;-48
2024/04/10 02:41:54;;;;;;;34.70;14.80;;;;;;;-147.86;100.00;21486.17;105850;1253;61219;-48
2024/04/10 02:44:21;;;;;;;33.90;15.00;;;;;;;-147.86;100.00;21432.04;105875;1257;75030;-51
2024/04/10 02:46:48;;;;;;;28.00;12.40;;;;;;;-147.86;100.00;21329.63;105883;1253;65520;-45
2024/04/10 02:49:15;;;;;;;27.70;11.90;;;;;;;-147.86;100.00;21301.59;105571;1256;72489;-45
2024/04/10 02:51:43;;;;;;;25.60;10.20;;;;;;;-147.86;100.00;21374.42;105700;1253;61802;-48
2024/04/10 02:54:09;;;;;;;29.50;12.60;;;;;;;-147.86;100.00;21564.06;105872;1254;61257;-52
2024/04/10 02:56:36;;;;;;;23.30;11.10;;;;;;;-147.86;100.00;21824.98;105919;1257;74558;-46
2024/04/10 02:59:03;;;;;;;30.70;10.70;;;;;;;-147.86;100.00;22053.20;105894;1253;65428;-47
2024/04/10 03:01:30;;;;;;;21.10;10.50;;;;;;;-147.86;100.00;22195.75;105866;1257;73115;-45
2024/04/10 03:03:57;;;;;;;50.30;20.30;;;;;;;-147.86;100.00;22311.42;105835;1253;62031;-44
2024/04/10 03:06:25;;;;;;;45.10;20.10;;;;;;;-147.86;100.00;22346.09;105930;1253;61324;-45
2024/04/10 03:08:52;;;;;;;49.30;20.20;;;;;;;-147.86;100.00;22413.47;105881;1253;74668;-46
2024/04/10 03:11:19;;;;;;;50.30;16.40;;;;;;;-147.86;100.00;22491.76;105883;1253;65239;-51
2024/04/10 03:13:47;;;;;;;37.80;12.00;;;;;;;-147.86;100.00;22725.87;105851;1257;72630;-49
2024/04/10 03:16:14;;;;;;;32.40;12.00;;;;;;;-147.86;100.00;23178.54;105912;1253;61960;-45
2024/04/10 03:18:41;;;;;;;35.40;13.60;;;;;;;-147.86;100.00;23729.06;105867;1253;61232;-49
2024/04/10 03:21:08;;;;;;;39.00;12.60;;;;;;;-147.86;100.00;24182.62;105832;1257;74619;-48
2024/04/10 03:23:35;;;;;;;26.30;10.60;;;;;;;-147.86;100.00;24533.73;105848;1253;65267;-48
2024/04/10 03:26:06;;;;;;;29.40;10.00;;;;;;;-147.86;100.00;24813.56;105867;1257;72599;-45
2024/04/10 03:28:36;;;;;;;28.50;10.20;;;;;;;-147.86;100.00;25040.80;105828;1253;61893;-47
2024/04/10 03:31:04;;;;;;;27.50;10.00;;;;;;;-147.86;100.00;25419.28;105874;1253;61208;-44
2024/04/10 03:33:31;;;;;;;21.70;8.20;;;;;;;-147.86;100.00;25805.20;105897;1252;74629;-49
2024/04/10 03:35:58;;;;;;;28.20;9.10;;;;;;;-147.86;100.00;26321.79;105892;1253;65643;-45
2024/04/10 03:38:26;;;;;;;21.90;8.70;;;;;;;-147.86;100.00;27071.23;105824;1257;72603;-45
2024/04/10 03:40:53;;;;;;;19.70;9.00;;;;;;;-147.86;100.00;27845.79;105850;1253;62002;-47
2024/04/10 03:43:20;;;;;;;23.00;8.80;;;;;;;-147.86;100.00;28683.31;105886;1253;61351;-48
2024/04/10 03:45:49;;;;;;;21.40;9.50;;;;;;;-147.86;100.00;29521.01;105848;1256;74552;-45
2024/04/10 03:48:16;;;;;;;16.40;9.30;;;;;;;-147.86;100.00;30260.93;105836;1253;65512;-46
2024/04/10 03:50:43;;;;;;;21.20;9.00;;;;;;;-147.86;100.00;31112.23;105819;1252;72632;-47
2024/04/10 03:53:10;;;;;;;19.50;9.10;;;;;;;-147.86;100.00;31881.34;105917;1253;61798;-49
2024/04/10 03:55:38;;;;;;;27.90;8.70;;;;;;;-147.86;100.00;32523.67;105875;1253;61145;-46
2024/04/10 03:58:05;;;;;;;24.80;8.70;;;;;;;-147.86;100.00;33076.29;105897;1253;74653;-47
2024/04/10 04:00:34;;;;;;;17.80;9.00;;;;;;;-147.86;100.00;33611.01;105901;1257;64736;-49
2024/04/10 04:03:01;;;;;;;21.50;8.70;;;;;;;-147.86;100.00;34130.18;105856;1254;72626;-47
2024/04/10 04:05:28;;;;;;;26.30;8.30;;;;;;;-147.86;100.00;34729.13;105920;1253;61821;-49
2024/04/10 04:07:55;;;;;;;21.00;9.30;;;;;;;-147.86;100.00;35331.29;105882;1253;61324;-48
2024/04/10 04:10:22;;;;;;;22.30;9.00;;;;;;;-147.86;100.00;35895.63;105870;1253;74628;-47
2024/04/10 04:12:49;;;;;;;28.30;8.80;;;;;;;-147.86;100.00;36418.63;105835;1253;65492;-48
2024/04/10 04:15:16;;;;;;;16.20;8.80;;;;;;;-147.86;100.00;36924.09;105880;1253;72596;-44
2024/04/10 04:17:43;;;;;;;22.60;8.30;;;;;;;-147.86;100.00;37396.39;105832;1253;61798;-47
2024/04/10 04:20:12;;;;;;;20.70;7.20;;;;;;;-147.86;100.00;37790.54;105885;1253;61238;-49
2024/04/10 04:22:39;;;;;;;24.70;8.20;;;;;;;-147.86;100.00;38072.09;105884;1256;74593;-48
2024/04/10 04:25:06;;;;;;;14.50;7.60;;;;;;;-147.86;100.00;38195.27;105905;1253;65410;-47
2024/04/10 04:27:33;;;;;;;16.60;7.30;;;;;;;-147.86;100.00;38221.48;105694;1257;72503;-50
2024/04/10 04:30:00;;;;;;;21.00;7.50;;;;;;;-147.86;100.00;38149.91;105804;1253;61924;-44
2024/04/10 04:32:27;;;;;;;17.70;6.70;;;;;;;-147.86;100.00;38017.73;105861;1253;61690;-46
2024/04/10 04:34:54;;;;;;;16.10;7.30;;;;;;;-147.86;100.00;37770.19;105690;1253;74518;-47
2024/04/10 04:37:21;;;;;;;15.20;7.10;;;;;;;-147.86;100.00;37438.60;105865;1255;65928;-49
2024/04/10 04:39:48;;;;;;;12.80;6.40;;;;;;;-147.86;100.00;36945.98;105684;1253;72620;-47
2024/04/10 04:42:16;;;;;;;13.20;6.10;;;;;;;-147.86;100.00;36200.49;105799;1257;61135;-50
2024/04/10 04:44:43;;;;;;;16.60;6.80;;;;;;;-147.86;100.00;35105.80;105630;1252;61203;-51
2024/04/10 04:47:10;;;;;;;23.90;6.70;;;;;;;-147.86;100.00;33630.53;105673;1253;74703;-48
2024/04/10 04:49:37;;;;;;;13.10;7.60;;;;;;;-147.86;100.00;31759.12;105844;1256;65535;-49
2024/04/10 04:52:05;;;;;;;32.00;10.90;;;;;;;-147.86;100.00;29220.95;105850;1257;72328;-53
2024/04/10 04:54:32;;;;;;;35.60;14.10;;;;;;;-147.86;100.00;25469.63;105875;1256;61363;-50
2024/04/10 04:56:59;;;;;;;34.90;11.10;;;;;;;-147.86;100.00;20474.79;105754;1252;61268;-48
2024/04/10 04:59:25;;;;;;;24.80;7.50;;;;;;;-147.86;100.00;14011.90;105845;1254;74667;-46
2024/04/10 05:01:53;;;;;;;18.70;7.00;;;;;;;-147.86;100.00;6182.65;105867;1253;64463;-45
2024/04/10 05:07:06;;;;;;;19.00;6.50;;;;;;;-147.86;100.00;-14817.13;105878;1253;61241;-47
2024/04/10 05:09:33;;;;;;;16.20;6.60;;;;;;;-147.86;100.00;-17591.92;105859;1253;62361;-48
2024/04/10 05:12:00;;;;;;;21.90;6.30;;;;;;;-147.86;100.00;-17609.17;105907;1257;76256;-47
2024/04/10 05:14:31;;;;;;;20.30;7.50;;;;;;;-147.86;100.00;-17609.17;105897;1257;65946;-48
2024/04/10 05:16:58;;;;;;;20.20;8.00;;;;;;;-147.86;100.00;-17609.17;105863;1253;71643;-46
2024/04/10 05:19:25;;;;;;;22.50;8.00;;;;;;;-147.86;100.00;-17609.17;105863;1257;61534;-47
2024/04/10 05:21:52;;;;;;;26.10;7.60;;;;;;;-147.86;100.00;-17609.17;105870;1253;61515;-48
2024/04/10 05:24:23;;;;;;;23.30;7.30;;;;;;;-147.86;100.00;-17609.17;105926;1252;76283;-49
2024/04/10 05:26:50;;;;;;;12.90;6.80;;;;;;;-147.86;100.00;-17609.17;105905;1257;64907;-50
2024/04/10 05:29:17;;;;;;;24.00;7.20;;;;;;;-147.86;100.00;-17609.17;105884;1253;73758;-49
2024/04/10 05:31:44;;;;;;;23.30;7.20;;;;;;;-147.86;100.00;-17609.17;105871;1257;61728;-53
2024/04/10 05:34:11;;;;;;;17.40;6.90;;;;;;;-147.86;100.00;-17609.17;105911;1253;61264;-49
2024/04/10 05:36:39;;;;;;;20.80;6.80;;;;;;;-147.86;100.00;-17609.17;105902;1253;75996;-47
2024/04/10 05:39:06;;;;;;;20.40;6.40;;;;;;;-147.86;100.00;-17609.17;105861;1256;64910;-47
2024/04/10 05:41:33;;;;;;;16.00;5.30;;;;;;;-147.86;100.00;-17609.17;105875;1253;74268;-51
2024/04/10 05:44:01;;;;;;;13.70;5.20;;;;;;;-147.86;100.00;-17609.17;105872;1253;61480;-50
2024/04/10 05:46:31;;;;;;;16.10;5.00;;;;;;;-147.86;100.00;-17609.17;105257;1253;820953;-48
2024/04/10 05:51:50;;;;;;;21.90;5.90;;;;;;;-147.86;100.00;-17609.17;102396;1295;603876;-46
2024/04/10 05:54:20;;;;;;;19.40;5.50;;;;;;;-147.86;100.00;-16966.46;104775;1266;59619;-45
2024/04/10 05:56:47;;;;;;;13.80;5.00;;;;;;;-147.86;100.00;-13164.22;104747;1266;61849;-51
2024/04/10 05:59:14;;;;;;;23.40;5.90;;;;;;;-147.86;100.00;-9655.37;104856;1267;74151;-46
2024/04/10 06:01:41;;;;;;;11.60;5.80;;;;;;;-147.86;100.00;-8122.26;105386;1264;65738;-52
2024/04/10 06:04:09;;;;;;;17.10;5.40;;;;;;;-147.86;100.00;-4459.71;105320;1257;263488;-50
2024/04/10 06:06:36;;;;;;;15.70;5.40;;;;;;;-147.86;99.16;5306.75;105594;1260;61602;-55
2024/04/10 06:09:03;;;;;;;24.80;5.80;;;;;;;-147.86;98.21;12858.53;105640;1256;61789;-47
2024/04/10 06:11:32;;;;;;;11.10;5.10;;;;;;;-147.86;96.88;18881.01;105641;1260;73211;-51
2024/04/10 06:13:59;;;;;;;11.40;5.30;;;;;;;-147.86;94.55;26558.88;105632;1260;65990;-48
2024/04/10 06:16:27;;;;;;;20.20;6.30;;;;;;;-147.86;94.13;31807.31;105619;1257;71629;-46
2024/04/10 06:18:54;;;;;;;13.20;5.00;;;;;;;-147.86;92.87;41205.26;105610;1260;60460;-45
2024/04/10 06:21:20;;;;;;;15.20;6.00;;;;;;;-147.86;92.30;44195.48;105608;1256;61676;-52
2024/04/10 06:23:47;;;;;;;14.80;5.50;;;;;;;-147.86;92.67;45193.18;105582;1260;75231;-50
2024/04/10 06:26:14;;;;;;;15.60;5.80;;;;;;;-147.86;91.36;45751.89;105709;1257;66866;-49
2024/04/10 06:28:42;;;;;;;20.30;5.60;;;;;;;-147.86;90.12;46443.93;105624;1258;73928;-49
2024/04/10 06:31:09;;;;;;;21.10;6.10;;;;;;;-147.86;89.24;46960.48;105631;1260;61792;-49
2024/04/10 06:33:36;;;;;;;9.20;4.70;;;;;;;-147.86;87.71;47531.59;105572;1258;61711;-44
2024/04/10 06:36:04;;;;;;;13.20;5.30;;;;;;;-147.86;87.97;47942.43;105651;1260;73869;-49
2024/04/10 06:38:32;;;;;;;16.00;5.70;;;;;;;-147.86;88.79;48195.70;105638;1257;67487;-48
2024/04/10 06:41:00;;;;;;;20.10;5.20;;;;;;;-147.86;87.67;48325.87;105635;1257;73850;-49
2024/04/10 06:43:28;;;;;;;23.50;5.80;;;;;;;-147.86;88.64;48512.11;105660;1260;61493;-47
2024/04/10 06:45:58;;;;;;;19.50;5.60;;;;;;;-147.86;89.31;48630.93;105625;1260;61492;-51
2024/04/10 06:48:26;;;;;;;10.60;4.60;;;;;;;-147.86;86.93;48701.51;105666;1259;75172;-43
2024/04/10 06:51:04;;;;;;;15.70;5.30;;;;;;;-147.86;84.73;48860.32;105609;1257;67103;-44
2024/04/10 06:53:32;;;;;;;10.70;5.00;;;;;;;-147.86;84.06;49065.02;105644;1260;72582;-46
2024/04/10 06:56:03;;;;;;;19.30;5.30;;;;;;;-147.86;83.26;49184.63;105636;1260;61423;-46
2024/04/10 06:58:34;;;;;;;12.10;5.00;;;;;;;-147.86;82.80;49272.87;105619;1257;61663;-48
2024/04/10 07:01:02;;;;;;;12.70;4.90;;;;;;;-147.86;82.69;49368.95;105625;1258;74821;-49
2024/04/10 07:03:39;;;;;;;16.70;5.10;;;;;;;-147.86;79.90;49391.70;105676;1260;66748;-48
2024/04/10 07:06:09;;;;;;;10.70;4.70;;;;;;;-147.86;76.05;49378.76;105605;1261;73983;-50
2024/04/10 07:08:41;;;;;;;18.00;4.90;;;;;;;-147.86;74.63;49343.07;105623;1257;60521;-47
2024/04/10 07:11:19;;;;;;;24.60;4.60;;;;;;;-147.86;72.55;49267.38;105667;1258;61530;-50
2024/04/10 07:13:48;;;;;;;20.50;4.70;;;;;;;-147.86;70.62;49229.73;105600;1257;74974;-55
2024/04/10 07:16:16;;;;;;;16.90;4.20;;;;;;;-147.86;66.55;49188.94;105609;1257;64186;-48
2024/04/10 07:18:44;;;;;;;15.10;4.20;;;;;;;-147.86;59.14;49096.79;105615;1257;73985;-49
2024/04/10 07:21:12;;;;;;;19.80;4.60;;;;;;;-147.86;56.95;49063.84;105597;1257;60503;-52
2024/04/10 07:23:40;;;;;;;25.10;4.70;;;;;;;-147.86;52.66;49028.55;105637;1257;61459;-46
2024/04/10 07:26:15;;;;;;;24.80;5.50;;;;;;;-147.86;48.59;48949.34;105653;1260;75001;-48
2024/04/10 07:28:46;;;;;;;;;;;;;;;-147.86;46.42;48902.28;105635;1260;65942;-48
2024/04/10 07:31:21;;;;;;;28.00;5.00;;;;;;;-147.86;45.14;48892.08;105585;1257;72757;-53
2024/04/10 07:33:49;;;;;;;15.00;4.70;;;;;;;-147.86;43.69;48860.71;105644;1257;61744;-47
2024/04/10 07:36:18;;;;;;;22.10;4.30;;;;;;;-147.86;43.63;48826.20;105625;1261;62029;-49
2024/04/10 07:38:46;;;;;;;19.60;4.90;;;;;;;-147.86;40.24;48639.94;105617;1260;75199;-50
2024/04/10 07:41:14;;;;;;;26.10;3.90;;;;;;;-147.86;39.97;48607.00;105586;1261;65908;-50
2024/04/10 07:43:41;;;;;;;19.00;3.70;;;;;;;-147.86;38.38;48567.79;105643;1257;71795;-48
2024/04/10 07:46:12;;;;;;;12.80;3.80;;;;;;;-147.86;37.13;48490.16;105626;1261;60469;-44
2024/04/10 07:48:40;;;;;;;15.30;4.90;;;;;;;-147.86;36.25;48444.28;105727;1257;61497;-52
2024/04/10 07:51:15;;;;;;;19.80;4.90;;;;;;;-147.86;35.63;48348.61;105614;1260;75058;-51
2024/04/10 07:53:42;;;;;;;19.10;4.10;;;;;;;-147.86;36.13;48354.49;105616;1259;65989;-49
2024/04/10 07:56:12;;;;;;;22.90;3.80;;;;;;;-147.86;36.02;48361.94;105623;1257;73714;-51
2024/04/10 07:58:39;;;;;;;29.40;4.50;;;;;;;-147.86;35.50;48339.20;105593;1260;62066;-50
2024/04/10 08:01:06;;;;;;;19.30;4.00;;;;;;;-147.86;34.37;48329.79;105643;1258;60474;-51
2024/04/10 08:03:34;;;;;;;17.60;4.10;;;;;;;-147.86;34.06;48284.30;105622;1257;75685;-47
2024/04/10 08:06:05;;;;;;;22.70;4.90;;;;;;;-147.86;33.79;48261.18;105918;1256;66110;-45
2024/04/10 08:08:32;;;;;;;11.90;3.80;;;;;;;-147.86;33.99;48263.92;105910;1253;72829;-45
2024/04/10 08:11:01;;;;;;;17.80;4.20;;;;;;;-147.86;34.21;48282.74;105889;1256;61631;-47
2024/04/10 08:13:29;;;;;;;18.40;3.90;;;;;;;-147.86;34.78;48321.95;106007;1253;60481;-49
2024/04/10 08:16:01;;;;;;;23.10;3.60;;;;;;;-147.86;34.60;48321.55;105909;1252;73945;-48
2024/04/10 08:18:28;;;;;;;13.90;3.70;;;;;;;-147.86;34.01;48332.93;105944;1256;65959;-49
2024/04/10 08:21:00;;;;;;;12.80;4.20;;;;;;;-147.86;32.87;48301.95;105875;1256;73001;-50
2024/04/10 08:23:28;;;;;;;13.70;3.80;;;;;;;-147.86;32.86;48294.11;105884;1257;61688;-47
2024/04/10 08:25:56;;;;;;;16.70;3.90;;;;;;;-147.86;32.63;48295.29;105889;1253;61605;-46
2024/04/10 08:28:25;;;;;;;18.90;4.30;;;;;;;-147.86;32.25;48292.54;105877;1254;75202;-49
2024/04/10 08:30:55;;;;;;;23.70;3.70;;;;;;;-147.86;31.94;48304.30;105887;1257;64915;-48
2024/04/10 08:33:23;;;;;;;14.50;3.90;;;;;;;-147.86;31.76;48287.84;105885;1253;74134;-53
2024/04/10 08:35:53;;;;;;;16.10;3.40;;;;;;;-147.86;31.58;48290.19;105909;1253;60534;-51
2024/04/10 08:38:20;;;;;;;17.50;4.00;;;;;;;-147.86;31.60;48285.48;105892;1253;61446;-50
2024/04/10 08:40:50;;;;;;;11.20;3.60;;;;;;;-147.86;31.37;48265.49;105888;1257;75126;-50
2024/04/10 08:43:20;;;;;;;10.70;3.60;;;;;;;-147.86;31.59;48276.07;105921;1257;66077;-47
2024/04/10 08:45:48;;;;;;;12.60;3.70;;;;;;;-147.86;31.10;48259.22;105882;1254;73810;-52
2024/04/10 08:48:16;;;;;;;16.00;3.80;;;;;;;-147.86;30.76;48257.25;105911;1253;62105;-50
2024/04/10 08:50:43;;;;;;;8.80;3.30;;;;;;;-147.86;30.64;48206.68;105919;1257;61537;-55
2024/04/10 08:53:13;;;;;;;11.10;3.70;;;;;;;-147.86;30.10;48177.27;105423;1257;75068;-51
2024/04/10 08:55:41;;;;;;;10.20;3.20;;;;;;;-147.86;30.19;48203.54;105752;1257;66041;-56
2024/04/10 08:58:26;;;;;;;15.20;2.40;;;;;;;-147.86;29.32;48131.79;105911;1254;74035;-51
2024/04/10 09:00:53;;;;;;;9.00;2.50;;;;;;;-147.86;29.02;48005.55;105873;1257;60512;-47
2024/04/10 09:03:20;;;;;;;12.50;2.20;;;;;;;-147.86;28.30;47952.23;105928;1253;62904;-47
2024/04/10 09:05:48;;;;;;;4.90;2.20;;;;;;;-147.86;28.56;47933.02;105896;1252;75342;-51
2024/04/10 09:08:14;;;;;;;2.90;1.90;;;;;;;-147.86;28.05;47885.58;105861;1257;65960;-53
2024/04/10 09:10:41;;;;;;;6.30;1.80;;;;;;;-147.86;27.96;47847.16;105854;1253;73652;-45
2024/04/10 09:13:10;;;;;;;5.90;1.50;;;;;;;-147.86;28.14;47838.15;105871;1257;61522;-54
2024/04/10 09:15:37;;;;;;;3.40;1.60;;;;;;;-147.86;26.99;47743.27;105838;1256;60429;-49
2024/04/10 09:18:05;;;;;;;9.70;2.00;;;;;;;-147.86;27.44;47711.52;105879;1252;75028;-49
2024/04/10 09:20:32;;;;;;;12.70;3.00;;;;;;;-147.86;27.96;47740.14;105917;1253;64666;-49
2024/04/10 09:23:04;;;;;;;16.40;3.50;;;;;;;-147.86;28.26;47767.19;105848;1253;73792;-48
2024/04/10 09:25:32;;;;;;;8.00;3.60;;;;;;;-147.86;28.35;47790.71;105902;1256;61465;-51
2024/04/10 09:28:03;;;;;;;14.40;3.20;;;;;;;-147.86;28.53;47798.55;105639;1253;61381;-51
2024/04/10 09:30:31;;;;;;;7.00;3.30;;;;;;;-147.86;28.80;47759.74;105637;1257;75068;-48
2024/04/10 09:32:59;;;;;;;10.50;3.60;;;;;;;-147.86;29.32;47749.54;105674;1252;66730;-53
2024/04/10 09:35:26;;;;;;;8.40;3.50;;;;;;;-147.86;29.58;47739.75;105904;1253;73068;-51
2024/04/10 09:37:57;;;;;;;11.30;3.40;;;;;;;-147.86;29.38;47716.22;105945;1252;61736;-56
2024/04/10 09:40:28;;;;;;;7.30;3.40;;;;;;;-147.86;29.92;47725.63;105724;1253;60510;-54
2024/04/10 09:43:05;;;;;;;17.10;3.00;;;;;;;-147.86;29.59;47678.98;105838;1256;75220;-48
2024/04/10 09:45:35;;;;;;;11.30;3.10;;;;;;;-147.86;29.85;47705.64;105962;1253;67107;-51
2024/04/10 09:48:08;;;;;;;12.10;3.10;;;;;;;-147.86;29.37;47685.25;105896;1253;71364;-47
2024/04/10 09:50:36;;;;;;;7.30;2.80;;;;;;;-147.86;29.07;47642.92;105852;1257;60517;-49
2024/04/10 09:53:04;;;;;;;9.50;2.90;;;;;;;-147.86;28.86;47622.53;105871;1253;61613;-48
2024/04/10 09:55:33;;;;;;;9.00;2.60;;;;;;;-147.86;28.95;47626.84;105901;1253;71782;-49
2024/04/10 09:58:06;;;;;;;9.10;2.90;;;;;;;-147.86;29.03;47638.21;105881;1253;66170;-49
2024/04/10 10:00:34;;;;;;;7.20;2.50;;;;;;;-147.86;29.25;47673.10;105891;1253;72688;-51
2024/04/10 10:03:05;;;;;;;3.50;2.10;;;;;;;-147.86;28.12;47652.32;105874;1252;61215;-51
2024/04/10 10:05:32;;;;;;;4.80;2.30;;;;;;;-147.86;28.02;47658.59;105891;1256;61679;-52
2024/04/10 10:08:05;;;;;;;7.00;2.50;;;;;;;-147.86;27.80;47643.70;105842;1257;76087;-50
2024/04/10 10:10:46;;;;;;;8.60;2.70;;;;;;;-147.86;27.79;47635.07;105869;1254;66034;-53
2024/04/10 10:13:13;;;;;;;5.90;2.00;;;;;;;-147.86;27.78;47614.69;105891;1256;72835;-49
2024/04/10 10:15:40;;;;;;;8.20;2.90;;;;;;;-147.86;27.64;47606.46;105821;1253;61556;-46
2024/04/10 10:18:08;;;;;;;6.90;2.40;;;;;;;-147.86;27.80;47638.99;105868;1253;61385;-49
2024/04/10 10:20:45;;;;;;;12.50;2.50;;;;;;;-147.86;27.95;47623.71;105814;1253;75416;-48
2024/04/10 10:23:20;;;;;;;8.30;2.30;;;;;;;-147.86;27.72;47601.76;105945;1252;66029;-53
2024/04/10 10:25:50;;;;;;;;;;;;;;;-147.86;27.76;47582.94;105681;1253;73916;-45
2024/04/10 10:28:17;;;;;;;4.90;2.20;;;;;;;-147.86;27.90;47597.05;105848;1257;61184;-52
2024/04/10 10:30:44;;;;;;;3.90;2.10;;;;;;;-147.86;28.26;47620.96;105811;1253;61637;-51
2024/04/10 10:33:12;;;;;;;8.40;2.60;;;;;;;-147.86;27.99;47629.98;105959;1252;76099;-49
2024/04/10 10:35:40;;;;;;;2.40;1.70;;;;;;;-147.86;27.22;47595.48;105858;1256;65940;-47
2024/04/10 10:38:08;;;;;;;9.60;2.40;;;;;;;-147.86;26.77;47589.99;105684;1253;74257;-52
2024/04/10 10:40:35;;;;;;;6.20;2.30;;;;;;;-147.86;26.61;47549.23;105843;1256;61970;-51
2024/04/10 10:43:04;;;;;;;7.60;2.40;;;;;;;-147.86;27.12;47555.89;105880;1253;61848;-49
2024/04/10 10:45:34;;;;;;;3.70;2.20;;;;;;;-147.86;27.57;47607.63;105860;1255;76365;-51
2024/04/10 10:48:04;;;;;;;11.90;2.20;;;;;;;-147.86;27.42;47617.04;105951;1257;65949;-51
2024/04/10 10:50:32;;;;;;;18.90;2.10;;;;;;;-147.86;27.08;47636.25;105906;1253;73659;-49
2024/04/10 10:53:02;;;;;;;9.00;2.00;;;;;;;-147.86;27.05;47657.81;105990;1257;62812;-48
2024/04/10 10:55:29;;;;;;;9.40;2.50;;;;;;;-147.86;26.60;47644.48;105709;1253;61495;-49
2024/04/10 10:58:14;;;;;;;11.30;2.30;;;;;;;-147.86;26.72;47597.45;105822;1257;74787;-50
2024/04/10 11:00:41;;;;;;;3.00;1.90;;;;;;;-147.86;26.98;47629.59;105730;1258;66764;-47
2024/04/10 11:03:11;;;;;;;2.60;1.70;;;;;;;-147.86;26.35;47565.69;105890;1253;73916;-48
2024/04/10 11:05:51;;;;;;;6.20;2.20;;;;;;;-147.86;26.22;47554.71;105745;1258;61219;-53
2024/04/10 11:08:24;;;;;;;8.90;2.10;;;;;;;-147.86;26.47;47568.82;105887;1253;61479;-52